createdAt,value
2022-08-26T00:01:29.075Z,21.91
2022-08-26T00:03:56.957Z,21.84
2022-08-26T00:06:27.226Z,21.98
2022-08-26T00:08:54.092Z,21.89
2022-08-26T00:11:26.555Z,21.96
2022-08-26T00:13:57.416Z,21.50
2022-08-26T00:16:26.554Z,21.29
2022-08-26T00:18:54.586Z,21.43
2022-08-26T00:21:21.228Z,21.48
2022-08-26T00:23:48.132Z,21.38
2022-08-26T00:26:15.080Z,21.43
2022-08-26T00:28:41.770Z,21.49
2022-08-26T00:31:11.088Z,21.53
2022-08-26T00:33:39.124Z,21.43
2022-08-26T00:36:07.076Z,21.19
2022-08-26T00:38:35.181Z,21.45
2022-08-26T00:41:05.191Z,21.48
2022-08-26T00:43:46.064Z,21.30
2022-08-26T00:46:17.479Z,21.22
2022-08-26T00:48:47.820Z,21.00
2022-08-26T00:51:19.434Z,20.95
2022-08-26T00:53:52.639Z,21.02
2022-08-26T00:56:33.004Z,20.91
2022-08-26T00:59:03.605Z,21.19
2022-08-26T01:01:31.193Z,21.51
2022-08-26T01:03:59.945Z,21.16
2022-08-26T01:06:28.038Z,20.95
2022-08-26T01:08:56.074Z,20.89
2022-08-26T01:11:24.170Z,21.06
2022-08-26T01:14:00.019Z,20.99
2022-08-26T01:16:26.863Z,20.91
2022-08-26T01:18:58.539Z,20.78
2022-08-26T01:21:27.255Z,21.06
2022-08-26T01:23:57.275Z,21.19
2022-08-26T01:26:32.259Z,20.92
2022-08-26T01:29:00.985Z,20.87
2022-08-26T01:31:31.409Z,21.27
2022-08-26T01:34:14.093Z,21.03
2022-08-26T01:36:41.183Z,20.85
2022-08-26T01:39:09.193Z,20.74
2022-08-26T01:41:38.653Z,20.70
2022-08-26T01:44:07.518Z,20.64
2022-08-26T01:46:36.914Z,20.63
2022-08-26T01:49:06.533Z,20.61
2022-08-26T01:51:37.247Z,20.83
2022-08-26T01:54:05.913Z,20.81
2022-08-26T01:56:33.477Z,20.74
2022-08-26T01:59:06.634Z,20.71
2022-08-26T02:01:33.796Z,20.70
2022-08-26T02:04:13.480Z,20.77
2022-08-26T02:06:41.152Z,20.77
2022-08-26T02:09:08.294Z,20.83
2022-08-26T02:11:36.848Z,20.74
2022-08-26T02:14:28.500Z,20.77
2022-08-26T02:16:56.043Z,21.06
2022-08-26T02:19:27.780Z,21.14
2022-08-26T02:21:54.498Z,20.93
2022-08-26T02:24:27.862Z,20.82
2022-08-26T02:26:58.542Z,20.82
2022-08-26T02:29:36.168Z,20.76
2022-08-26T02:32:07.677Z,20.73
2022-08-26T02:34:34.867Z,20.75
2022-08-26T02:37:04.555Z,20.75
2022-08-26T02:39:33.103Z,20.94
2022-08-26T02:41:59.932Z,21.08
2022-08-26T02:44:27.312Z,21.16
2022-08-26T02:46:54.648Z,21.13
2022-08-26T02:49:23.572Z,20.94
2022-08-26T02:51:51.048Z,20.75
2022-08-26T02:54:21.219Z,20.86
2022-08-26T02:56:48.119Z,20.80
2022-08-26T02:59:15.409Z,20.70
2022-08-26T03:01:42.622Z,20.59
2022-08-26T03:04:11.744Z,20.54
2022-08-26T03:06:41.465Z,20.52
2022-08-26T03:09:08.962Z,20.42
2022-08-26T03:11:36.724Z,20.57
2022-08-26T03:14:04.398Z,20.78
2022-08-26T03:16:35.680Z,20.91
2022-08-26T03:19:04.133Z,20.88
2022-08-26T03:21:31.390Z,20.88
2022-08-26T03:23:58.927Z,20.94
2022-08-26T03:26:28.237Z,21.04
2022-08-26T03:29:14.416Z,20.99
2022-08-26T03:31:41.409Z,20.93
2022-08-26T03:34:09.646Z,20.85
2022-08-26T03:36:38.654Z,20.92
2022-08-26T03:39:06.051Z,20.95
2022-08-26T03:41:34.948Z,21.01
2022-08-26T03:44:02.437Z,20.89
2022-08-26T03:46:31.688Z,20.79
2022-08-26T03:48:58.672Z,20.69
2022-08-26T03:51:25.944Z,20.61
2022-08-26T03:53:53.070Z,20.47
2022-08-26T03:56:19.813Z,20.34
2022-08-26T03:58:46.481Z,20.28
2022-08-26T04:01:16.200Z,20.17
2022-08-26T04:04:00.373Z,20.05
2022-08-26T04:06:34.821Z,20.05
2022-08-26T04:09:05.263Z,20.02
2022-08-26T04:11:34.629Z,19.95
2022-08-26T04:14:05.800Z,19.87
2022-08-26T04:16:33.115Z,19.84
2022-08-26T04:19:00.017Z,19.79
2022-08-26T04:21:28.547Z,19.78
2022-08-26T04:23:56.077Z,19.81
2022-08-26T04:26:25.807Z,19.86
2022-08-26T04:28:54.726Z,19.84
2022-08-26T04:31:21.964Z,19.85
2022-08-26T04:33:50.011Z,19.79
2022-08-26T04:36:20.076Z,19.94
2022-08-26T04:38:47.632Z,19.89
2022-08-26T04:41:15.560Z,19.87
2022-08-26T04:43:44.694Z,19.92
2022-08-26T04:46:13.193Z,19.94
2022-08-26T04:48:41.196Z,19.94
2022-08-26T04:51:09.703Z,19.99
2022-08-26T04:53:37.310Z,20.13
2022-08-26T04:56:04.735Z,20.29
2022-08-26T04:58:32.022Z,20.67
2022-08-26T05:00:58.701Z,21.05
2022-08-26T05:03:27.375Z,21.29
2022-08-26T05:05:58.213Z,21.54
2022-08-26T05:08:27.650Z,21.69
2022-08-26T05:10:56.088Z,21.48
2022-08-26T05:13:26.182Z,21.21
2022-08-26T05:15:53.132Z,20.93
2022-08-26T05:18:23.085Z,20.90
2022-08-26T05:20:54.003Z,21.27
2022-08-26T05:23:25.038Z,21.65
2022-08-26T05:25:58.372Z,21.77
2022-08-26T05:28:28.337Z,21.75
2022-08-26T05:30:55.820Z,21.62
2022-08-26T05:33:23.027Z,21.51
2022-08-26T05:35:50.189Z,21.57
2022-08-26T05:38:19.291Z,21.56
2022-08-26T05:40:52.619Z,21.83
2022-08-26T05:43:20.268Z,22.60
2022-08-26T05:45:49.232Z,23.28
2022-08-26T05:48:18.442Z,23.70
2022-08-26T05:50:51.776Z,24.02
2022-08-26T05:53:20.785Z,24.47
2022-08-26T05:55:50.713Z,24.72
2022-08-26T05:58:20.217Z,24.91
2022-08-26T06:00:57.028Z,24.31
2022-08-26T06:03:23.677Z,23.49
2022-08-26T06:05:55.331Z,22.85
2022-08-26T06:08:22.340Z,22.59
2022-08-26T06:10:53.396Z,22.40
2022-08-26T06:13:26.810Z,22.21
2022-08-26T06:15:54.577Z,22.31
2022-08-26T06:18:27.425Z,22.59
2022-08-26T06:20:57.866Z,22.85
2022-08-26T06:23:45.219Z,23.27
2022-08-26T06:26:12.935Z,23.84
2022-08-26T06:28:39.572Z,23.95
2022-08-26T06:31:08.206Z,24.21
2022-08-26T06:33:35.321Z,24.38
2022-08-26T06:36:02.116Z,24.66
2022-08-26T06:38:28.781Z,25.44
2022-08-26T06:40:58.515Z,25.57
2022-08-26T06:43:27.679Z,25.31
2022-08-26T06:46:03.788Z,25.20
2022-08-26T06:48:32.156Z,24.80
2022-08-26T06:51:13.551Z,24.81
2022-08-26T06:53:41.885Z,24.80
2022-08-26T06:56:11.267Z,24.93
2022-08-26T06:58:40.879Z,24.88
2022-08-26T07:01:20.117Z,25.09
2022-08-26T07:03:48.644Z,24.97
2022-08-26T07:06:15.792Z,25.07
2022-08-26T07:08:43.261Z,25.15
2022-08-26T07:11:11.191Z,25.34
2022-08-26T07:13:39.080Z,25.59
2022-08-26T07:16:12.558Z,25.51
2022-08-26T07:18:42.156Z,25.16
2022-08-26T07:21:13.160Z,25.16
2022-08-26T07:23:41.433Z,25.25
2022-08-26T07:26:11.740Z,25.27
2022-08-26T07:28:39.421Z,25.40
2022-08-26T07:31:07.513Z,25.46
2022-08-26T07:33:37.927Z,25.39
2022-08-26T07:36:07.267Z,25.36
2022-08-26T07:38:35.163Z,25.38
2022-08-26T07:41:02.180Z,25.61
2022-08-26T07:43:29.618Z,25.76
2022-08-26T07:45:56.768Z,25.58
2022-08-26T07:48:24.134Z,25.57
2022-08-26T07:50:53.759Z,25.63
2022-08-26T07:53:21.733Z,25.61
2022-08-26T07:55:51.136Z,25.52
2022-08-26T07:58:18.929Z,25.14
2022-08-26T08:00:46.143Z,25.14
2022-08-26T08:03:12.900Z,25.47
2022-08-26T08:05:41.428Z,25.68
2022-08-26T08:08:26.515Z,25.51
2022-08-26T08:10:55.658Z,25.79
2022-08-26T08:13:22.996Z,25.93
2022-08-26T08:15:50.433Z,25.59
2022-08-26T08:18:18.089Z,25.39
2022-08-26T08:20:59.196Z,25.69
2022-08-26T08:23:25.970Z,25.57
2022-08-26T08:26:01.634Z,25.77
2022-08-26T08:28:28.730Z,25.91
2022-08-26T08:30:56.418Z,26.09
2022-08-26T08:33:23.209Z,26.03
2022-08-26T08:35:49.838Z,26.25
2022-08-26T08:38:16.923Z,26.12
2022-08-26T08:40:45.501Z,26.23
2022-08-26T08:43:14.674Z,26.05
2022-08-26T08:45:50.178Z,26.11
2022-08-26T08:48:29.645Z,25.99
2022-08-26T08:51:04.945Z,25.90
2022-08-26T08:53:41.611Z,25.87
2022-08-26T08:56:38.139Z,25.85
2022-08-26T08:59:22.798Z,25.93
2022-08-26T09:01:55.935Z,25.76
2022-08-26T09:04:41.276Z,26.00
2022-08-26T09:07:12.772Z,26.53
2022-08-26T09:09:44.326Z,26.52
2022-08-26T09:12:16.146Z,26.53
2022-08-26T09:14:44.643Z,26.58
2022-08-26T09:17:24.863Z,26.42
2022-08-26T09:19:56.015Z,26.92
2022-08-26T09:22:31.559Z,27.03
2022-08-26T09:24:58.231Z,27.49
2022-08-26T09:27:51.305Z,27.40
2022-08-26T09:30:30.949Z,27.65
2022-08-26T09:33:00.994Z,27.56
2022-08-26T09:35:34.148Z,27.27
2022-08-26T09:38:00.845Z,27.67
2022-08-26T09:40:36.293Z,27.81
2022-08-26T09:43:22.161Z,27.89
2022-08-26T09:46:10.628Z,28.52
2022-08-26T09:48:40.625Z,28.02
2022-08-26T09:51:31.495Z,28.29
2022-08-26T09:54:05.783Z,28.58
2022-08-26T09:56:37.491Z,28.34
2022-08-26T09:59:06.574Z,28.49
2022-08-26T10:01:42.528Z,28.45
2022-08-26T10:04:14.091Z,28.44
2022-08-26T10:07:05.341Z,28.59
2022-08-26T10:09:40.888Z,28.61
2022-08-26T10:12:15.402Z,27.69
2022-08-26T10:15:04.096Z,28.11
2022-08-26T10:17:43.789Z,28.00
2022-08-26T10:20:23.346Z,28.13
2022-08-26T10:23:01.216Z,28.45
2022-08-26T10:25:46.279Z,28.56
2022-08-26T10:28:19.355Z,28.76
2022-08-26T10:31:18.599Z,28.94
2022-08-26T10:33:46.897Z,28.66
2022-08-26T10:36:46.947Z,28.36
2022-08-26T10:39:37.199Z,28.57
2022-08-26T10:42:14.348Z,28.07
2022-08-26T10:44:44.355Z,28.17
2022-08-26T10:47:18.502Z,27.95
2022-08-26T10:49:47.668Z,28.16
2022-08-26T10:52:20.947Z,28.08
2022-08-26T10:54:50.141Z,28.39
2022-08-26T10:57:43.972Z,27.87
2022-08-26T11:00:38.559Z,27.78
2022-08-26T11:03:38.843Z,28.10
2022-08-26T11:06:25.646Z,28.13
2022-08-26T11:08:57.943Z,28.22
2022-08-26T11:11:41.522Z,28.01
2022-08-26T11:14:41.119Z,28.06
2022-08-26T11:17:46.398Z,28.31
2022-08-26T11:20:22.199Z,28.03
2022-08-26T11:22:51.585Z,28.22
2022-08-26T11:25:20.632Z,28.17
2022-08-26T11:27:50.807Z,27.84
2022-08-26T11:30:21.166Z,28.16
2022-08-26T11:32:57.224Z,28.39
2022-08-26T11:35:24.559Z,28.22
2022-08-26T11:37:57.307Z,28.32
2022-08-26T11:40:32.767Z,28.15
2022-08-26T11:43:07.104Z,28.08
2022-08-26T11:45:37.569Z,28.08
2022-08-26T11:48:36.849Z,27.54
2022-08-26T11:51:21.948Z,28.01
2022-08-26T11:54:26.933Z,28.57
2022-08-26T11:57:11.673Z,28.62
2022-08-26T11:59:40.208Z,28.84
2022-08-26T12:02:14.891Z,28.52
2022-08-26T12:04:43.656Z,28.71
2022-08-26T12:07:10.425Z,28.59
2022-08-26T12:09:52.620Z,28.65
2022-08-26T12:12:27.078Z,28.84
2022-08-26T12:15:16.774Z,28.91
2022-08-26T12:17:45.418Z,28.46
2022-08-26T12:23:46.883Z,28.85
2022-08-26T12:26:22.550Z,28.28
2022-08-26T12:28:57.515Z,27.96
2022-08-26T12:31:37.575Z,27.79
2022-08-26T12:34:18.210Z,28.26
2022-08-26T12:36:56.647Z,28.46
2022-08-26T12:39:36.689Z,29.02
2022-08-26T12:42:03.287Z,28.76
2022-08-26T12:44:38.695Z,28.99
2022-08-26T12:47:35.161Z,28.94
2022-08-26T12:50:09.947Z,29.34
2022-08-26T12:53:25.068Z,29.39
2022-08-26T12:56:00.127Z,29.19
2022-08-26T12:58:38.713Z,29.89
2022-08-26T13:01:08.909Z,29.86
2022-08-26T13:03:38.634Z,29.61
2022-08-26T13:06:09.579Z,30.00
2022-08-26T13:08:48.451Z,29.72
2022-08-26T13:11:35.359Z,29.77
2022-08-26T13:14:18.348Z,29.56
2022-08-26T13:16:51.447Z,29.93
2022-08-26T13:19:20.537Z,30.36
2022-08-26T13:21:55.325Z,28.78
2022-08-26T13:24:28.005Z,27.59
2022-08-26T13:26:55.063Z,26.19
2022-08-26T13:29:24.324Z,25.65
2022-08-26T13:31:51.774Z,25.55
2022-08-26T13:34:20.223Z,25.47
2022-08-26T13:36:56.562Z,25.73
2022-08-26T13:39:24.252Z,26.00
2022-08-26T13:41:51.433Z,26.55
2022-08-26T13:44:18.635Z,26.41
2022-08-26T13:46:48.707Z,26.68
2022-08-26T13:49:15.507Z,26.75
2022-08-26T13:51:42.173Z,27.12
2022-08-26T13:54:08.960Z,27.33
2022-08-26T13:56:36.211Z,27.61
2022-08-26T13:59:05.756Z,27.80
2022-08-26T14:01:34.519Z,27.83
2022-08-26T14:04:14.719Z,28.24
2022-08-26T14:06:45.009Z,28.33
2022-08-26T14:09:23.914Z,28.79
2022-08-26T14:11:54.828Z,28.85
2022-08-26T14:14:29.237Z,28.86
2022-08-26T14:16:59.581Z,28.74
2022-08-26T14:19:32.130Z,28.88
2022-08-26T14:22:57.389Z,28.71
2022-08-26T14:29:32.380Z,28.57
2022-08-26T14:35:59.762Z,28.48
2022-08-26T14:38:36.522Z,28.53
2022-08-26T14:41:06.134Z,28.47
2022-08-26T14:43:33.887Z,28.56
2022-08-26T14:46:01.163Z,28.25
2022-08-26T14:48:28.003Z,27.94
2022-08-26T14:51:00.100Z,27.92
2022-08-26T14:53:51.664Z,27.93
2022-08-26T14:56:18.426Z,27.51
2022-08-26T14:58:45.889Z,27.22
2022-08-26T15:01:15.096Z,27.16
2022-08-26T15:03:42.671Z,26.65
2022-08-26T15:06:10.399Z,26.28
2022-08-26T15:08:37.332Z,25.70
2022-08-26T15:11:08.472Z,25.08
2022-08-26T15:13:35.636Z,24.78
2022-08-26T15:16:02.631Z,24.57
2022-08-26T15:18:29.505Z,24.22
2022-08-26T15:20:56.232Z,23.98
2022-08-26T15:23:25.027Z,24.14
2022-08-26T15:25:51.689Z,23.98
2022-08-26T15:28:18.343Z,23.65
2022-08-26T15:30:44.951Z,23.74
2022-08-26T15:33:15.346Z,23.58
2022-08-26T15:35:43.001Z,23.50
2022-08-26T15:38:10.707Z,23.42
2022-08-26T15:40:37.772Z,23.27
2022-08-26T15:43:18.424Z,22.93
2022-08-26T15:45:51.841Z,22.66
2022-08-26T15:48:19.004Z,22.24
2022-08-26T15:50:51.843Z,22.13
2022-08-26T15:53:18.494Z,21.86
2022-08-26T15:55:45.246Z,21.86
2022-08-26T15:58:12.020Z,21.70
2022-08-26T16:00:39.843Z,21.49
2022-08-26T16:03:09.352Z,21.51
2022-08-26T16:05:38.273Z,21.17
2022-08-26T16:08:06.378Z,20.96
2022-08-26T16:10:39.315Z,20.66
2022-08-26T16:13:06.247Z,20.61
2022-08-26T16:15:33.738Z,20.59
2022-08-26T16:18:01.935Z,20.41
2022-08-26T16:20:29.638Z,20.29
2022-08-26T16:22:56.396Z,20.36
2022-08-26T16:25:23.172Z,20.37
2022-08-26T16:27:51.767Z,20.39
2022-08-26T16:30:21.706Z,20.39
2022-08-26T16:32:48.812Z,20.41
2022-08-26T16:35:16.088Z,20.58
2022-08-26T16:37:42.833Z,20.61
2022-08-26T16:40:10.305Z,20.58
2022-08-26T16:42:37.683Z,20.54
2022-08-26T16:45:05.314Z,20.37
2022-08-26T16:47:32.999Z,20.23
2022-08-26T16:50:00.025Z,20.20
2022-08-26T16:52:26.779Z,20.15
2022-08-26T16:54:58.412Z,20.23
2022-08-26T16:57:25.030Z,20.29
2022-08-26T16:59:51.748Z,20.32
2022-08-26T17:02:18.487Z,20.45
2022-08-26T17:04:47.153Z,20.40
2022-08-26T17:07:17.057Z,20.29
2022-08-26T17:09:43.736Z,20.22
2022-08-26T17:12:10.339Z,20.13
2022-08-26T17:14:37.222Z,19.84
2022-08-26T17:17:05.956Z,19.78
2022-08-26T17:19:34.534Z,19.91
2022-08-26T17:22:08.865Z,20.01
2022-08-26T17:24:35.500Z,20.07
2022-08-26T17:27:02.119Z,19.99
2022-08-26T17:29:28.860Z,19.76
2022-08-26T17:31:55.516Z,19.62
2022-08-26T17:34:22.781Z,19.53
2022-08-26T17:36:49.581Z,19.49
2022-08-26T17:39:16.468Z,19.40
2022-08-26T17:41:43.557Z,19.37
2022-08-26T17:44:10.216Z,19.17
2022-08-26T17:46:38.526Z,19.19
2022-08-26T17:49:07.101Z,19.10
2022-08-26T17:51:33.817Z,19.03
2022-08-26T17:54:00.461Z,19.07
2022-08-26T17:56:31.668Z,19.06
2022-08-26T17:59:03.532Z,19.02
2022-08-26T18:01:31.292Z,19.02
2022-08-26T18:04:01.048Z,18.90
2022-08-26T18:06:28.843Z,18.84
2022-08-26T18:08:55.483Z,18.76
2022-08-26T18:11:25.434Z,18.76
2022-08-26T18:13:52.147Z,18.60
2022-08-26T18:16:21.405Z,18.55
2022-08-26T18:18:49.102Z,18.62
2022-08-26T18:21:19.063Z,18.56
2022-08-26T18:23:46.932Z,18.47
2022-08-26T18:26:22.930Z,18.40
2022-08-26T18:28:49.687Z,18.49
2022-08-26T18:31:16.654Z,18.53
2022-08-26T18:33:43.292Z,18.67
2022-08-26T18:36:27.922Z,18.69
2022-08-26T18:38:55.341Z,18.72
2022-08-26T18:41:23.932Z,18.75
2022-08-26T18:43:53.002Z,18.78
2022-08-26T18:46:21.414Z,18.76
2022-08-26T18:48:49.098Z,18.83
2022-08-26T18:51:26.787Z,18.84
2022-08-26T18:53:53.496Z,18.98
2022-08-26T18:56:20.247Z,19.05
2022-08-26T18:58:47.114Z,19.19
2022-08-26T19:01:14.261Z,19.23
2022-08-26T19:03:41.127Z,19.31
2022-08-26T19:06:11.332Z,19.39
2022-08-26T19:08:37.997Z,19.43
2022-08-26T19:11:11.271Z,19.55
2022-08-26T19:13:44.134Z,19.58
2022-08-26T19:16:22.611Z,19.65
2022-08-26T19:18:50.379Z,19.64
2022-08-26T19:21:17.116Z,19.64
2022-08-26T19:23:43.802Z,19.74
2022-08-26T19:26:11.252Z,19.80
2022-08-26T19:28:40.777Z,19.89
2022-08-26T19:31:10.488Z,19.91
2022-08-26T19:33:43.075Z,20.01
2022-08-26T19:36:17.388Z,19.98
2022-08-26T19:38:44.747Z,19.96
2022-08-26T19:41:16.396Z,19.99
2022-08-26T19:43:43.070Z,20.18
2022-08-26T19:46:18.759Z,20.12
2022-08-26T19:48:45.925Z,20.14
2022-08-26T19:51:19.321Z,20.17
2022-08-26T19:53:47.369Z,20.18
2022-08-26T19:56:14.707Z,20.33
2022-08-26T19:58:41.889Z,20.16
2022-08-26T20:01:08.790Z,20.18
2022-08-26T20:03:39.452Z,20.08
2022-08-26T20:06:08.235Z,20.20
2022-08-26T20:08:36.091Z,20.23
2022-08-26T20:11:07.203Z,20.13
2022-08-26T20:13:33.862Z,19.98
2022-08-26T20:16:03.797Z,20.06
2022-08-26T20:18:48.971Z,19.98
2022-08-26T20:21:27.771Z,19.87
2022-08-26T20:24:05.929Z,19.85
2022-08-26T20:26:35.251Z,19.86
2022-08-26T20:29:02.260Z,19.67
2022-08-26T20:31:29.111Z,19.63
2022-08-26T20:33:55.788Z,19.48
2022-08-26T20:36:24.488Z,19.58
2022-08-26T20:38:51.200Z,19.48
2022-08-26T20:41:18.296Z,19.44
2022-08-26T20:43:46.155Z,19.57
2022-08-26T20:46:18.783Z,19.37
2022-08-26T20:48:48.472Z,19.43
2022-08-26T20:51:16.450Z,19.40
2022-08-26T20:53:44.266Z,19.36
2022-08-26T20:56:15.230Z,19.31
2022-08-26T20:58:42.499Z,19.29
2022-08-26T21:01:17.890Z,19.23
2022-08-26T21:03:45.002Z,19.25
2022-08-26T21:06:12.336Z,19.22
2022-08-26T21:08:42.523Z,19.26
2022-08-26T21:11:10.385Z,19.21
2022-08-26T21:13:48.578Z,19.14
2022-08-26T21:16:25.364Z,19.15
2022-08-26T21:18:52.663Z,19.18
2022-08-26T21:21:19.997Z,19.17
2022-08-26T21:23:51.870Z,19.07
2022-08-26T21:26:18.496Z,19.20
2022-08-26T21:28:46.211Z,19.26
2022-08-26T21:31:15.741Z,19.23
2022-08-26T21:33:44.137Z,19.26
2022-08-26T21:36:12.051Z,19.07
2022-08-26T21:38:39.403Z,19.12
2022-08-26T21:41:19.287Z,19.07
2022-08-26T21:43:47.050Z,19.13
2022-08-26T21:46:19.148Z,19.06
2022-08-26T21:49:07.349Z,19.16
2022-08-26T21:51:39.623Z,19.03
2022-08-26T21:54:10.840Z,18.99
2022-08-26T21:56:41.428Z,18.91
2022-08-26T21:59:08.403Z,18.90
2022-08-26T22:01:35.966Z,19.01
2022-08-26T22:04:04.044Z,18.97
2022-08-26T22:06:31.932Z,18.87
2022-08-26T22:08:59.079Z,18.91
2022-08-26T22:11:27.320Z,19.00
2022-08-26T22:13:55.533Z,18.94
2022-08-26T22:16:22.397Z,18.89
2022-08-26T22:18:49.124Z,18.97
2022-08-26T22:21:18.888Z,18.96
2022-08-26T22:23:46.214Z,19.00
2022-08-26T22:26:15.485Z,18.83
2022-08-26T22:28:52.082Z,18.72
2022-08-26T22:31:28.198Z,18.68
2022-08-26T22:34:06.480Z,18.61
2022-08-26T22:36:33.265Z,18.68
2022-08-26T22:39:00.967Z,18.71
2022-08-26T22:41:27.971Z,18.80
2022-08-26T22:43:54.639Z,18.78
2022-08-26T22:46:26.412Z,18.72
2022-08-26T22:48:54.215Z,18.72
2022-08-26T22:51:21.720Z,18.87
2022-08-26T22:53:48.358Z,18.84
2022-08-26T22:56:15.191Z,18.74
2022-08-26T22:58:41.899Z,18.64
2022-08-26T23:01:08.706Z,18.67
2022-08-26T23:03:35.704Z,18.63
2022-08-26T23:06:06.121Z,18.57
2022-08-26T23:08:32.799Z,18.56
2022-08-26T23:11:01.552Z,18.36
2022-08-26T23:13:33.545Z,18.42
2022-08-26T23:16:06.043Z,18.33
2022-08-26T23:18:32.849Z,18.24
2022-08-26T23:20:59.534Z,18.16
2022-08-26T23:23:29.174Z,18.23
2022-08-26T23:25:55.838Z,18.12
2022-08-26T23:28:24.179Z,18.01
2022-08-26T23:30:50.804Z,17.98
2022-08-26T23:33:17.484Z,17.95
2022-08-26T23:35:44.114Z,18.04
2022-08-26T23:38:13.393Z,18.03
2022-08-26T23:40:41.070Z,17.97
2022-08-26T23:43:10.533Z,17.97
2022-08-26T23:45:37.228Z,18.11
2022-08-26T23:48:05.108Z,18.00
2022-08-26T23:50:50.770Z,18.04
2022-08-26T23:53:21.726Z,18.05
2022-08-26T23:55:51.582Z,18.03
2022-08-26T23:58:19.888Z,18.03
